Algoma Mariner — CFN5517 — position and weather

sailwx.info

Track history (hours):
 
Tides and Currents Weather Stations Pressure Air Temp Water Temp Dewpoint Dewpoint Depression Visibility Wind Speed Wind Dir Waves Ship Positions

Algoma Mariner

Last reported at 2016-Sep-22 12:33 UTC. Time now 2016-Sep-26 20:46 UTC.
Position N 45°48' W 073°20'.

Length 225 m; draft 8.1 m.

Type: Cargo ship. MMSI: 316014050.

Date/timePositionNaut miles runAvg speedWind from/ knotsBaromVisibWave heightAir tempDewpointWater temp
2016-Sep-22 12:33N 45°48' W 073°20'38 4.7
2016-Sep-22 04:34N 45°19' W 073°55'1 1.0
2016-Sep-22 03:34N 45°18' W 073°56'272 6.6
2016-Sep-20 10:33N 42°52' W 079°15'2612.9
2016-Sep-20 08:33N 42°35' W 079°42'14 7.1
2016-Sep-20 06:33N 42°26' W 079°57'  
2016-Sep-17 00:33N 43°03' W 079°13'8 1.2
2016-Sep-16 17:33N 43°12' W 079°12'1 0.3
2016-Sep-16 15:07N 43°12' W 079°13'132 4.8
2016-Sep-15 11:33N 44°05' W 076°25'129 7.2
2016-Sep-14 17:33N 45°18' W 073°56'1 0.8
2016-Sep-14 16:33N 45°19' W 073°55'15 5.1
2016-Sep-14 13:33N 45°24' W 073°35'9 2.4
2016-Sep-14 09:33N 45°34' W 073°31'6 5.9
2016-Sep-14 08:33N 45°39' W 073°28'9 8.9
2016-Sep-14 07:33N 45°47' W 073°22'9 9.4
2016-Sep-14 06:33N 45°54' W 073°13'27 8.9
2016-Sep-14 03:33N 46°14' W 072°47'  
Track history (hours):
 
Tides and Currents Weather Stations Pressure Air Temp Water Temp Dewpoint Dewpoint Depression Visibility Wind Speed Wind Dir Waves Ship Positions

Algoma Mariner

Last reported at 2016-Sep-22 12:33 UTC. Time now 2016-Sep-26 20:46 UTC.
Position N 45°48' W 073°20'.

Length 225 m; draft 8.1 m.

Type: Cargo ship. MMSI: 316014050.

Date/timePositionNaut miles runAvg speedWind from/ knotsBaromVisibWave heightAir tempDewpointWater temp
2016-Sep-22 12:33N 45°48' W 073°20'38 4.7
2016-Sep-22 04:34N 45°19' W 073°55'1 1.0
2016-Sep-22 03:34N 45°18' W 073°56'272 6.6
2016-Sep-20 10:33N 42°52' W 079°15'2612.9
2016-Sep-20 08:33N 42°35' W 079°42'14 7.1
2016-Sep-20 06:33N 42°26' W 079°57'  
2016-Sep-17 00:33N 43°03' W 079°13'8 1.2
2016-Sep-16 17:33N 43°12' W 079°12'1 0.3
2016-Sep-16 15:07N 43°12' W 079°13'132 4.8
2016-Sep-15 11:33N 44°05' W 076°25'129 7.2
2016-Sep-14 17:33N 45°18' W 073°56'1 0.8
2016-Sep-14 16:33N 45°19' W 073°55'15 5.1
2016-Sep-14 13:33N 45°24' W 073°35'9 2.4
2016-Sep-14 09:33N 45°34' W 073°31'6 5.9
2016-Sep-14 08:33N 45°39' W 073°28'9 8.9
2016-Sep-14 07:33N 45°47' W 073°22'9 9.4
2016-Sep-14 06:33N 45°54' W 073°13'27 8.9
2016-Sep-14 03:33N 46°14' W 072°47'  

Dump ship's entire track history